sensor_id;sensor_type;location;lat;lon;timestamp;P1;durP1;ratioP1;P2;durP2;ratioP2
43297;SDS011;28892;55.640;37.532;2023-02-28T00:00:17;9.03;;;5.30;;
43297;SDS011;28892;55.640;37.532;2023-02-28T00:02:43;9.53;;;6.50;;
43297;SDS011;28892;55.640;37.532;2023-02-28T00:05:10;7.80;;;5.63;;
43297;SDS011;28892;55.640;37.532;2023-02-28T00:07:38;6.80;;;5.53;;
43297;SDS011;28892;55.640;37.532;2023-02-28T00:10:05;8.03;;;5.40;;
43297;SDS011;28892;55.640;37.532;2023-02-28T00:12:33;7.40;;;5.00;;
43297;SDS011;28892;55.640;37.532;2023-02-28T00:14:59;5.33;;;4.43;;
43297;SDS011;28892;55.640;37.532;2023-02-28T00:17:25;6.07;;;4.73;;
43297;SDS011;28892;55.640;37.532;2023-02-28T00:19:51;7.03;;;4.60;;
43297;SDS011;28892;55.640;37.532;2023-02-28T00:22:18;7.73;;;5.10;;
43297;SDS011;28892;55.640;37.532;2023-02-28T00:24:45;7.27;;;4.97;;
43297;SDS011;28892;55.640;37.532;2023-02-28T00:27:12;6.60;;;4.23;;
43297;SDS011;28892;55.640;37.532;2023-02-28T00:29:38;8.23;;;5.43;;
43297;SDS011;28892;55.640;37.532;2023-02-28T00:32:04;5.87;;;4.27;;
43297;SDS011;28892;55.640;37.532;2023-02-28T00:34:31;8.40;;;5.77;;
43297;SDS011;28892;55.640;37.532;2023-02-28T00:37:06;7.40;;;4.70;;
43297;SDS011;28892;55.640;37.532;2023-02-28T00:39:34;9.70;;;5.40;;
43297;SDS011;28892;55.640;37.532;2023-02-28T00:42:02;6.73;;;4.63;;
43297;SDS011;28892;55.640;37.532;2023-02-28T00:44:29;7.33;;;5.10;;
43297;SDS011;28892;55.640;37.532;2023-02-28T00:46:55;8.13;;;5.53;;
43297;SDS011;28892;55.640;37.532;2023-02-28T00:49:23;7.73;;;5.67;;
43297;SDS011;28892;55.640;37.532;2023-02-28T00:51:50;6.03;;;4.37;;
43297;SDS011;28892;55.640;37.532;2023-02-28T00:54:16;11.00;;;5.23;;
43297;SDS011;28892;55.640;37.532;2023-02-28T00:56:42;7.93;;;5.50;;
43297;SDS011;28892;55.640;37.532;2023-02-28T00:59:08;6.20;;;4.83;;
43297;SDS011;28892;55.640;37.532;2023-02-28T01:01:33;7.20;;;5.60;;
43297;SDS011;28892;55.640;37.532;2023-02-28T01:03:59;8.57;;;5.83;;
43297;SDS011;28892;55.640;37.532;2023-02-28T01:06:25;7.27;;;5.33;;
43297;SDS011;28892;55.640;37.532;2023-02-28T01:08:51;7.50;;;5.00;;
43297;SDS011;28892;55.640;37.532;2023-02-28T01:11:17;7.83;;;5.57;;
43297;SDS011;28892;55.640;37.532;2023-02-28T01:13:44;8.67;;;5.07;;
43297;SDS011;28892;55.640;37.532;2023-02-28T01:16:11;9.20;;;5.67;;
43297;SDS011;28892;55.640;37.532;2023-02-28T01:18:41;6.97;;;4.40;;
43297;SDS011;28892;55.640;37.532;2023-02-28T01:21:10;8.00;;;4.90;;
43297;SDS011;28892;55.640;37.532;2023-02-28T01:23:38;9.03;;;5.93;;
43297;SDS011;28892;55.640;37.532;2023-02-28T01:26:09;6.93;;;4.90;;
43297;SDS011;28892;55.640;37.532;2023-02-28T01:28:38;9.63;;;5.40;;
43297;SDS011;28892;55.640;37.532;2023-02-28T01:31:04;7.03;;;5.07;;
43297;SDS011;28892;55.640;37.532;2023-02-28T01:33:31;8.00;;;5.30;;
43297;SDS011;28892;55.640;37.532;2023-02-28T01:36:02;9.73;;;5.87;;
43297;SDS011;28892;55.640;37.532;2023-02-28T01:38:30;7.80;;;5.70;;
43297;SDS011;28892;55.640;37.532;2023-02-28T01:40:56;7.03;;;4.47;;
43297;SDS011;28892;55.640;37.532;2023-02-28T01:45:49;7.00;;;4.77;;
43297;SDS011;28892;55.640;37.532;2023-02-28T01:48:15;7.97;;;5.13;;
43297;SDS011;28892;55.640;37.532;2023-02-28T01:50:45;7.10;;;5.00;;
43297;SDS011;28892;55.640;37.532;2023-02-28T01:53:14;6.37;;;4.83;;
43297;SDS011;28892;55.640;37.532;2023-02-28T01:55:45;7.03;;;5.40;;
43297;SDS011;28892;55.640;37.532;2023-02-28T01:58:14;7.30;;;4.40;;
43297;SDS011;28892;55.640;37.532;2023-02-28T02:00:41;7.90;;;5.07;;
43297;SDS011;28892;55.640;37.532;2023-02-28T02:03:10;8.67;;;5.00;;
43297;SDS011;28892;55.640;37.532;2023-02-28T02:05:39;7.60;;;4.90;;
43297;SDS011;28892;55.640;37.532;2023-02-28T02:08:10;6.40;;;5.43;;
43297;SDS011;28892;55.640;37.532;2023-02-28T02:26:38;6.77;;;4.90;;
43297;SDS011;28892;55.640;37.532;2023-02-28T02:34:31;7.73;;;4.60;;
43297;SDS011;28892;55.640;37.532;2023-02-28T02:42:55;6.60;;;3.97;;
43297;SDS011;28892;55.640;37.532;2023-02-28T02:45:11;5.17;;;4.10;;
43297;SDS011;28892;55.640;37.532;2023-02-28T02:47:41;7.70;;;5.33;;
43297;SDS011;28892;55.640;37.532;2023-02-28T02:50:11;5.87;;;4.43;;
43297;SDS011;28892;55.640;37.532;2023-02-28T02:55:15;6.43;;;3.97;;
43297;SDS011;28892;55.640;37.532;2023-02-28T03:00:25;6.40;;;4.43;;
43297;SDS011;28892;55.640;37.532;2023-02-28T03:02:56;5.25;;;3.67;;
43297;SDS011;28892;55.640;37.532;2023-02-28T03:05:27;5.20;;;3.67;;
43297;SDS011;28892;55.640;37.532;2023-02-28T03:08:04;5.43;;;4.00;;
43297;SDS011;28892;55.640;37.532;2023-02-28T03:10:32;6.00;;;4.00;;
43297;SDS011;28892;55.640;37.532;2023-02-28T03:15:54;6.30;;;4.17;;
43297;SDS011;28892;55.640;37.532;2023-02-28T03:18:36;5.22;;;3.70;;
43297;SDS011;28892;55.640;37.532;2023-02-28T03:21:15;6.55;;;3.70;;
43297;SDS011;28892;55.640;37.532;2023-02-28T03:23:48;6.70;;;3.63;;
43297;SDS011;28892;55.640;37.532;2023-02-28T03:26:24;4.77;;;3.83;;
43297;SDS011;28892;55.640;37.532;2023-02-28T03:29:06;5.83;;;3.77;;
43297;SDS011;28892;55.640;37.532;2023-02-28T03:31:43;5.37;;;3.70;;
43297;SDS011;28892;55.640;37.532;2023-02-28T03:34:17;4.27;;;3.07;;
43297;SDS011;28892;55.640;37.532;2023-02-28T03:36:46;3.90;;;3.30;;
43297;SDS011;28892;55.640;37.532;2023-02-28T03:39:27;4.47;;;3.10;;
43297;SDS011;28892;55.640;37.532;2023-02-28T03:42:00;5.40;;;4.27;;
43297;SDS011;28892;55.640;37.532;2023-02-28T03:44:41;4.97;;;3.47;;
43297;SDS011;28892;55.640;37.532;2023-02-28T03:47:16;4.50;;;2.93;;
43297;SDS011;28892;55.640;37.532;2023-02-28T03:50:05;5.10;;;3.30;;
43297;SDS011;28892;55.640;37.532;2023-02-28T03:52:38;4.25;;;3.00;;
43297;SDS011;28892;55.640;37.532;2023-02-28T03:55:09;6.50;;;4.10;;
43297;SDS011;28892;55.640;37.532;2023-02-28T04:03:01;4.20;;;3.40;;
43297;SDS011;28892;55.640;37.532;2023-02-28T04:05:27;4.97;;;3.33;;
43297;SDS011;28892;55.640;37.532;2023-02-28T04:08:04;5.43;;;4.23;;
43297;SDS011;28892;55.640;37.532;2023-02-28T04:10:32;5.87;;;3.73;;
43297;SDS011;28892;55.640;37.532;2023-02-28T04:12:58;4.60;;;3.43;;
43297;SDS011;28892;55.640;37.532;2023-02-28T04:15:23;5.33;;;3.77;;
43297;SDS011;28892;55.640;37.532;2023-02-28T04:17:50;6.10;;;3.47;;
43297;SDS011;28892;55.640;37.532;2023-02-28T04:20:16;5.70;;;3.60;;
43297;SDS011;28892;55.640;37.532;2023-02-28T04:22:49;4.47;;;3.43;;
43297;SDS011;28892;55.640;37.532;2023-02-28T04:25:14;6.78;;;3.38;;
43297;SDS011;28892;55.640;37.532;2023-02-28T04:31:42;4.72;;;3.42;;
43297;SDS011;28892;55.640;37.532;2023-02-28T04:34:08;5.13;;;3.23;;
43297;SDS011;28892;55.640;37.532;2023-02-28T04:36:33;5.47;;;2.90;;
43297;SDS011;28892;55.640;37.532;2023-02-28T04:38:59;6.83;;;3.97;;
43297;SDS011;28892;55.640;37.532;2023-02-28T04:41:25;5.77;;;3.63;;
43297;SDS011;28892;55.640;37.532;2023-02-28T04:43:51;6.30;;;4.00;;
43297;SDS011;28892;55.640;37.532;2023-02-28T04:46:18;6.90;;;3.60;;
43297;SDS011;28892;55.640;37.532;2023-02-28T04:48:45;5.07;;;3.60;;
43297;SDS011;28892;55.640;37.532;2023-02-28T04:51:12;5.43;;;3.40;;
43297;SDS011;28892;55.640;37.532;2023-02-28T04:53:39;6.30;;;3.77;;
43297;SDS011;28892;55.640;37.532;2023-02-28T04:56:06;3.67;;;2.90;;
43297;SDS011;28892;55.640;37.532;2023-02-28T04:58:35;6.47;;;3.40;;
43297;SDS011;28892;55.640;37.532;2023-02-28T05:01:05;4.93;;;3.20;;
43297;SDS011;28892;55.640;37.532;2023-02-28T05:03:42;4.83;;;3.23;;
43297;SDS011;28892;55.640;37.532;2023-02-28T05:06:09;3.63;;;2.57;;
43297;SDS011;28892;55.640;37.532;2023-02-28T05:08:36;4.17;;;2.93;;
43297;SDS011;28892;55.640;37.532;2023-02-28T05:11:06;5.23;;;3.07;;
43297;SDS011;28892;55.640;37.532;2023-02-28T05:13:37;4.25;;;3.03;;
43297;SDS011;28892;55.640;37.532;2023-02-28T05:16:03;5.23;;;3.27;;
43297;SDS011;28892;55.640;37.532;2023-02-28T05:18:28;5.23;;;3.00;;
43297;SDS011;28892;55.640;37.532;2023-02-28T05:20:54;3.67;;;2.73;;
43297;SDS011;28892;55.640;37.532;2023-02-28T05:23:23;4.43;;;2.87;;
43297;SDS011;28892;55.640;37.532;2023-02-28T05:25:49;3.80;;;2.90;;
43297;SDS011;28892;55.640;37.532;2023-02-28T05:28:14;5.60;;;4.87;;
43297;SDS011;28892;55.640;37.532;2023-02-28T05:30:40;6.00;;;3.20;;
43297;SDS011;28892;55.640;37.532;2023-02-28T05:33:06;4.03;;;3.03;;
43297;SDS011;28892;55.640;37.532;2023-02-28T05:35:31;7.67;;;3.57;;
43297;SDS011;28892;55.640;37.532;2023-02-28T05:37:57;4.67;;;3.83;;
43297;SDS011;28892;55.640;37.532;2023-02-28T05:40:25;4.30;;;2.80;;
43297;SDS011;28892;55.640;37.532;2023-02-28T05:42:54;4.77;;;3.27;;
43297;SDS011;28892;55.640;37.532;2023-02-28T05:45:25;4.40;;;2.90;;
43297;SDS011;28892;55.640;37.532;2023-02-28T05:47:54;3.97;;;3.03;;
43297;SDS011;28892;55.640;37.532;2023-02-28T05:50:21;4.83;;;3.37;;
43297;SDS011;28892;55.640;37.532;2023-02-28T05:52:50;3.93;;;3.10;;
43297;SDS011;28892;55.640;37.532;2023-02-28T05:55:16;4.50;;;3.27;;
43297;SDS011;28892;55.640;37.532;2023-02-28T05:57:42;5.60;;;3.20;;
43297;SDS011;28892;55.640;37.532;2023-02-28T06:00:08;2.03;;;1.73;;
43297;SDS011;28892;55.640;37.532;2023-02-28T06:02:38;4.70;;;3.07;;
43297;SDS011;28892;55.640;37.532;2023-02-28T06:05:07;4.40;;;3.27;;
43297;SDS011;28892;55.640;37.532;2023-02-28T06:07:38;3.25;;;2.60;;
43297;SDS011;28892;55.640;37.532;2023-02-28T06:10:17;5.50;;;3.30;;
43297;SDS011;28892;55.640;37.532;2023-02-28T06:12:43;5.03;;;3.50;;
43297;SDS011;28892;55.640;37.532;2023-02-28T06:15:12;5.47;;;3.63;;
43297;SDS011;28892;55.640;37.532;2023-02-28T06:17:40;5.30;;;2.93;;
43297;SDS011;28892;55.640;37.532;2023-02-28T06:20:08;6.07;;;3.27;;
43297;SDS011;28892;55.640;37.532;2023-02-28T06:22:35;2.53;;;2.00;;
43297;SDS011;28892;55.640;37.532;2023-02-28T06:25:02;6.23;;;3.70;;
43297;SDS011;28892;55.640;37.532;2023-02-28T06:27:30;3.73;;;2.53;;
43297;SDS011;28892;55.640;37.532;2023-02-28T06:29:56;4.73;;;3.10;;
43297;SDS011;28892;55.640;37.532;2023-02-28T06:32:22;4.57;;;2.80;;
43297;SDS011;28892;55.640;37.532;2023-02-28T06:34:48;4.60;;;3.30;;
43297;SDS011;28892;55.640;37.532;2023-02-28T06:37:15;4.30;;;3.17;;
43297;SDS011;28892;55.640;37.532;2023-02-28T06:39:42;4.50;;;3.10;;
43297;SDS011;28892;55.640;37.532;2023-02-28T06:42:14;4.00;;;3.33;;
43297;SDS011;28892;55.640;37.532;2023-02-28T06:44:42;6.17;;;3.70;;
43297;SDS011;28892;55.640;37.532;2023-02-28T06:47:08;6.90;;;5.13;;
43297;SDS011;28892;55.640;37.532;2023-02-28T06:49:35;3.67;;;2.70;;
43297;SDS011;28892;55.640;37.532;2023-02-28T06:52:01;4.10;;;2.90;;
43297;SDS011;28892;55.640;37.532;2023-02-28T06:54:27;6.03;;;3.30;;
43297;SDS011;28892;55.640;37.532;2023-02-28T06:56:53;3.63;;;3.00;;
43297;SDS011;28892;55.640;37.532;2023-02-28T06:59:21;5.23;;;3.27;;
43297;SDS011;28892;55.640;37.532;2023-02-28T07:01:47;5.63;;;3.40;;
43297;SDS011;28892;55.640;37.532;2023-02-28T07:04:13;3.57;;;2.73;;
43297;SDS011;28892;55.640;37.532;2023-02-28T07:06:38;5.37;;;2.83;;
43297;SDS011;28892;55.640;37.532;2023-02-28T07:09:04;5.27;;;3.20;;
43297;SDS011;28892;55.640;37.532;2023-02-28T07:11:30;4.77;;;3.43;;
43297;SDS011;28892;55.640;37.532;2023-02-28T07:13:56;4.00;;;2.90;;
43297;SDS011;28892;55.640;37.532;2023-02-28T07:16:23;4.63;;;3.00;;
43297;SDS011;28892;55.640;37.532;2023-02-28T07:18:51;3.73;;;2.97;;
43297;SDS011;28892;55.640;37.532;2023-02-28T07:21:18;3.97;;;3.07;;
43297;SDS011;28892;55.640;37.532;2023-02-28T07:23:44;4.50;;;2.90;;
43297;SDS011;28892;55.640;37.532;2023-02-28T07:26:12;4.07;;;3.00;;
43297;SDS011;28892;55.640;37.532;2023-02-28T07:28:40;4.17;;;2.67;;
43297;SDS011;28892;55.640;37.532;2023-02-28T07:31:10;4.10;;;3.23;;
43297;SDS011;28892;55.640;37.532;2023-02-28T07:33:37;5.93;;;4.03;;
43297;SDS011;28892;55.640;37.532;2023-02-28T07:36:05;4.00;;;2.90;;
43297;SDS011;28892;55.640;37.532;2023-02-28T07:38:33;3.30;;;2.40;;
43297;SDS011;28892;55.640;37.532;2023-02-28T07:41:00;4.77;;;3.63;;
43297;SDS011;28892;55.640;37.532;2023-02-28T07:43:29;5.53;;;3.40;;
43297;SDS011;28892;55.640;37.532;2023-02-28T07:46:08;4.37;;;3.27;;
43297;SDS011;28892;55.640;37.532;2023-02-28T07:48:35;3.63;;;2.50;;
43297;SDS011;28892;55.640;37.532;2023-02-28T07:51:01;4.43;;;2.83;;
43297;SDS011;28892;55.640;37.532;2023-02-28T07:53:28;4.00;;;2.90;;
43297;SDS011;28892;55.640;37.532;2023-02-28T07:55:57;3.47;;;2.50;;
43297;SDS011;28892;55.640;37.532;2023-02-28T07:58:24;4.00;;;2.93;;
43297;SDS011;28892;55.640;37.532;2023-02-28T08:00:51;3.87;;;2.93;;
43297;SDS011;28892;55.640;37.532;2023-02-28T08:03:17;5.07;;;2.87;;
43297;SDS011;28892;55.640;37.532;2023-02-28T08:05:45;4.30;;;3.00;;
43297;SDS011;28892;55.640;37.532;2023-02-28T08:08:11;4.50;;;3.13;;
43297;SDS011;28892;55.640;37.532;2023-02-28T08:10:37;4.03;;;3.10;;
43297;SDS011;28892;55.640;37.532;2023-02-28T08:13:03;7.70;;;3.37;;
43297;SDS011;28892;55.640;37.532;2023-02-28T08:15:29;5.17;;;3.77;;
43297;SDS011;28892;55.640;37.532;2023-02-28T08:17:55;4.53;;;3.00;;
43297;SDS011;28892;55.640;37.532;2023-02-28T08:23:48;6.27;;;3.47;;
43297;SDS011;28892;55.640;37.532;2023-02-28T08:26:16;6.63;;;3.60;;
43297;SDS011;28892;55.640;37.532;2023-02-28T08:28:42;3.47;;;2.63;;
43297;SDS011;28892;55.640;37.532;2023-02-28T08:31:13;5.93;;;3.20;;
43297;SDS011;28892;55.640;37.532;2023-02-28T08:33:40;4.57;;;3.00;;
43297;SDS011;28892;55.640;37.532;2023-02-28T08:36:07;5.10;;;3.60;;
43297;SDS011;28892;55.640;37.532;2023-02-28T08:38:36;4.97;;;3.70;;
43297;SDS011;28892;55.640;37.532;2023-02-28T08:41:04;7.30;;;3.60;;
43297;SDS011;28892;55.640;37.532;2023-02-28T08:43:33;6.33;;;3.77;;
43297;SDS011;28892;55.640;37.532;2023-02-28T08:45:59;5.80;;;4.10;;
43297;SDS011;28892;55.640;37.532;2023-02-28T08:48:26;6.23;;;3.60;;
43297;SDS011;28892;55.640;37.532;2023-02-28T08:53:29;6.20;;;3.63;;
43297;SDS011;28892;55.640;37.532;2023-02-28T08:55:56;4.43;;;3.63;;
43297;SDS011;28892;55.640;37.532;2023-02-28T08:58:26;4.23;;;3.17;;
43297;SDS011;28892;55.640;37.532;2023-02-28T09:00:52;8.00;;;3.60;;
43297;SDS011;28892;55.640;37.532;2023-02-28T09:03:18;4.00;;;3.20;;
43297;SDS011;28892;55.640;37.532;2023-02-28T09:05:51;3.70;;;3.00;;
43297;SDS011;28892;55.640;37.532;2023-02-28T09:08:18;5.90;;;3.30;;
43297;SDS011;28892;55.640;37.532;2023-02-28T09:10:44;4.57;;;3.07;;
43297;SDS011;28892;55.640;37.532;2023-02-28T09:13:10;4.73;;;3.33;;
43297;SDS011;28892;55.640;37.532;2023-02-28T09:15:37;5.57;;;2.93;;
43297;SDS011;28892;55.640;37.532;2023-02-28T09:18:03;5.23;;;3.23;;
43297;SDS011;28892;55.640;37.532;2023-02-28T09:20:29;5.47;;;3.00;;
43297;SDS011;28892;55.640;37.532;2023-02-28T09:22:54;4.97;;;3.70;;
43297;SDS011;28892;55.640;37.532;2023-02-28T09:25:20;4.63;;;3.00;;
43297;SDS011;28892;55.640;37.532;2023-02-28T09:27:46;7.50;;;3.53;;
43297;SDS011;28892;55.640;37.532;2023-02-28T09:30:12;4.67;;;3.07;;
43297;SDS011;28892;55.640;37.532;2023-02-28T09:32:38;7.13;;;2.93;;
43297;SDS011;28892;55.640;37.532;2023-02-28T09:35:04;4.43;;;3.23;;
43297;SDS011;28892;55.640;37.532;2023-02-28T09:37:30;5.70;;;3.43;;
43297;SDS011;28892;55.640;37.532;2023-02-28T09:39:56;5.20;;;3.63;;
43297;SDS011;28892;55.640;37.532;2023-02-28T09:42:29;6.17;;;3.27;;
43297;SDS011;28892;55.640;37.532;2023-02-28T09:44:59;4.37;;;3.10;;
43297;SDS011;28892;55.640;37.532;2023-02-28T09:52:55;6.77;;;3.43;;
43297;SDS011;28892;55.640;37.532;2023-02-28T09:55:24;7.73;;;3.30;;
43297;SDS011;28892;55.640;37.532;2023-02-28T09:58:15;5.67;;;3.63;;
43297;SDS011;28892;55.640;37.532;2023-02-28T10:00:46;6.27;;;3.53;;
43297;SDS011;28892;55.640;37.532;2023-02-28T10:03:50;6.03;;;3.97;;
43297;SDS011;28892;55.640;37.532;2023-02-28T10:06:26;5.87;;;3.93;;
43297;SDS011;28892;55.640;37.532;2023-02-28T10:12:03;7.40;;;3.73;;
43297;SDS011;28892;55.640;37.532;2023-02-28T10:14:32;8.52;;;3.50;;
43297;SDS011;28892;55.640;37.532;2023-02-28T10:17:02;4.00;;;2.97;;
43297;SDS011;28892;55.640;37.532;2023-02-28T10:25:36;5.27;;;3.27;;
43297;SDS011;28892;55.640;37.532;2023-02-28T10:28:13;8.50;;;2.50;;
43297;SDS011;28892;55.640;37.532;2023-02-28T10:30:41;5.80;;;3.10;;
43297;SDS011;28892;55.640;37.532;2023-02-28T10:33:20;5.10;;;3.00;;
43297;SDS011;28892;55.640;37.532;2023-02-28T10:36:10;7.60;;;3.37;;
43297;SDS011;28892;55.640;37.532;2023-02-28T10:42:24;6.60;;;3.60;;
43297;SDS011;28892;55.640;37.532;2023-02-28T10:50:58;7.00;;;4.00;;
43297;SDS011;28892;55.640;37.532;2023-02-28T10:53:30;5.43;;;3.57;;
43297;SDS011;28892;55.640;37.532;2023-02-28T10:56:24;5.40;;;3.33;;
43297;SDS011;28892;55.640;37.532;2023-02-28T11:01:44;5.77;;;3.80;;
43297;SDS011;28892;55.640;37.532;2023-02-28T11:07:03;7.20;;;3.33;;
43297;SDS011;28892;55.640;37.532;2023-02-28T11:09:34;5.77;;;4.27;;
43297;SDS011;28892;55.640;37.532;2023-02-28T11:12:06;4.90;;;3.93;;
43297;SDS011;28892;55.640;37.532;2023-02-28T11:14:46;5.03;;;3.53;;
43297;SDS011;28892;55.640;37.532;2023-02-28T11:17:15;5.53;;;3.90;;
43297;SDS011;28892;55.640;37.532;2023-02-28T11:19:48;6.25;;;3.80;;
43297;SDS011;28892;55.640;37.532;2023-02-28T11:22:37;6.60;;;4.40;;
43297;SDS011;28892;55.640;37.532;2023-02-28T11:27:52;5.88;;;3.72;;
43297;SDS011;28892;55.640;37.532;2023-02-28T11:30:40;5.67;;;4.20;;
43297;SDS011;28892;55.640;37.532;2023-02-28T11:36:02;7.10;;;4.27;;
43297;SDS011;28892;55.640;37.532;2023-02-28T11:38:36;5.03;;;4.10;;
43297;SDS011;28892;55.640;37.532;2023-02-28T11:47:20;6.53;;;4.53;;
43297;SDS011;28892;55.640;37.532;2023-02-28T11:54:27;5.87;;;3.90;;
43297;SDS011;28892;55.640;37.532;2023-02-28T11:57:32;6.53;;;4.23;;
43297;SDS011;28892;55.640;37.532;2023-02-28T12:15:00;4.07;;;3.47;;
43297;SDS011;28892;55.640;37.532;2023-02-28T12:20:57;6.07;;;3.72;;
43297;SDS011;28892;55.640;37.532;2023-02-28T12:26:40;5.93;;;4.20;;
43297;SDS011;28892;55.640;37.532;2023-02-28T12:29:23;5.30;;;3.70;;
43297;SDS011;28892;55.640;37.532;2023-02-28T12:32:11;5.93;;;3.70;;
43297;SDS011;28892;55.640;37.532;2023-02-28T12:34:49;5.80;;;4.00;;
43297;SDS011;28892;55.640;37.532;2023-02-28T12:37:43;4.73;;;3.80;;
43297;SDS011;28892;55.640;37.532;2023-02-28T12:40:12;9.77;;;4.17;;
43297;SDS011;28892;55.640;37.532;2023-02-28T12:42:45;5.83;;;3.77;;
43297;SDS011;28892;55.640;37.532;2023-02-28T12:45:26;5.80;;;3.80;;
43297;SDS011;28892;55.640;37.532;2023-02-28T12:48:04;4.43;;;3.40;;
43297;SDS011;28892;55.640;37.532;2023-02-28T12:50:33;5.33;;;4.10;;
43297;SDS011;28892;55.640;37.532;2023-02-28T12:53:18;6.57;;;4.60;;
43297;SDS011;28892;55.640;37.532;2023-02-28T12:58:51;4.68;;;3.60;;
43297;SDS011;28892;55.640;37.532;2023-02-28T13:15:34;5.47;;;3.90;;
43297;SDS011;28892;55.640;37.532;2023-02-28T13:24:54;4.23;;;3.30;;
43297;SDS011;28892;55.640;37.532;2023-02-28T13:27:45;3.93;;;3.37;;
43297;SDS011;28892;55.640;37.532;2023-02-28T13:34:04;5.90;;;3.37;;
43297;SDS011;28892;55.640;37.532;2023-02-28T13:36:45;3.73;;;2.70;;
43297;SDS011;28892;55.640;37.532;2023-02-28T13:40:22;4.73;;;3.53;;
43297;SDS011;28892;55.640;37.532;2023-02-28T13:43:20;2.83;;;2.50;;
43297;SDS011;28892;55.640;37.532;2023-02-28T13:49:32;4.20;;;3.27;;
43297;SDS011;28892;55.640;37.532;2023-02-28T14:06:41;4.83;;;3.57;;
43297;SDS011;28892;55.640;37.532;2023-02-28T14:11:55;3.30;;;2.57;;
43297;SDS011;28892;55.640;37.532;2023-02-28T14:17:07;5.30;;;3.57;;
43297;SDS011;28892;55.640;37.532;2023-02-28T14:19:39;4.38;;;3.00;;
43297;SDS011;28892;55.640;37.532;2023-02-28T14:42:02;6.03;;;4.37;;
43297;SDS011;28892;55.640;37.532;2023-02-28T14:44:30;5.27;;;3.97;;
43297;SDS011;28892;55.640;37.532;2023-02-28T14:47:11;5.33;;;4.10;;
43297;SDS011;28892;55.640;37.532;2023-02-28T14:49:45;4.95;;;3.42;;
43297;SDS011;28892;55.640;37.532;2023-02-28T14:52:23;5.70;;;3.70;;
43297;SDS011;28892;55.640;37.532;2023-02-28T14:55:05;4.37;;;3.67;;
43297;SDS011;28892;55.640;37.532;2023-02-28T14:57:41;5.40;;;3.97;;
43297;SDS011;28892;55.640;37.532;2023-02-28T15:00:27;4.17;;;3.43;;
43297;SDS011;28892;55.640;37.532;2023-02-28T15:02:59;5.77;;;4.07;;
43297;SDS011;28892;55.640;37.532;2023-02-28T15:05:28;4.30;;;3.23;;
43297;SDS011;28892;55.640;37.532;2023-02-28T15:08:10;5.57;;;3.77;;
43297;SDS011;28892;55.640;37.532;2023-02-28T15:10:51;6.93;;;4.57;;
43297;SDS011;28892;55.640;37.532;2023-02-28T15:16:34;5.20;;;3.67;;
43297;SDS011;28892;55.640;37.532;2023-02-28T15:19:28;4.20;;;3.20;;
43297;SDS011;28892;55.640;37.532;2023-02-28T15:22:13;5.33;;;4.43;;
43297;SDS011;28892;55.640;37.532;2023-02-28T15:24:47;4.30;;;3.30;;
43297;SDS011;28892;55.640;37.532;2023-02-28T15:27:42;4.30;;;3.13;;
43297;SDS011;28892;55.640;37.532;2023-02-28T15:47:29;3.27;;;2.17;;
43297;SDS011;28892;55.640;37.532;2023-02-28T15:58:25;3.40;;;2.73;;
43297;SDS011;28892;55.640;37.532;2023-02-28T16:01:33;5.17;;;3.07;;
43297;SDS011;28892;55.640;37.532;2023-02-28T16:04:15;5.10;;;3.10;;
43297;SDS011;28892;55.640;37.532;2023-02-28T16:07:36;3.87;;;2.83;;
43297;SDS011;28892;55.640;37.532;2023-02-28T16:31:02;3.80;;;2.60;;
43297;SDS011;28892;55.640;37.532;2023-02-28T16:33:33;3.50;;;2.57;;
43297;SDS011;28892;55.640;37.532;2023-02-28T16:37:44;3.50;;;2.70;;
43297;SDS011;28892;55.640;37.532;2023-02-28T16:40:35;5.73;;;2.53;;
43297;SDS011;28892;55.640;37.532;2023-02-28T16:51:03;3.73;;;2.60;;
43297;SDS011;28892;55.640;37.532;2023-02-28T16:53:30;7.80;;;2.47;;
43297;SDS011;28892;55.640;37.532;2023-02-28T16:55:57;4.13;;;2.43;;
43297;SDS011;28892;55.640;37.532;2023-02-28T16:58:23;4.87;;;2.77;;
43297;SDS011;28892;55.640;37.532;2023-02-28T17:00:53;3.83;;;2.60;;
43297;SDS011;28892;55.640;37.532;2023-02-28T17:03:23;3.17;;;2.50;;
43297;SDS011;28892;55.640;37.532;2023-02-28T17:06:24;2.92;;;2.38;;
43297;SDS011;28892;55.640;37.532;2023-02-28T17:17:51;2.93;;;2.30;;
43297;SDS011;28892;55.640;37.532;2023-02-28T17:20:33;3.97;;;3.00;;
43297;SDS011;28892;55.640;37.532;2023-02-28T17:22:59;3.10;;;2.30;;
43297;SDS011;28892;55.640;37.532;2023-02-28T17:25:28;3.80;;;2.67;;
43297;SDS011;28892;55.640;37.532;2023-02-28T17:28:04;5.07;;;3.13;;
43297;SDS011;28892;55.640;37.532;2023-02-28T17:34:32;3.13;;;1.70;;
43297;SDS011;28892;55.640;37.532;2023-02-28T17:44:18;3.20;;;2.20;;
43297;SDS011;28892;55.640;37.532;2023-02-28T17:46:49;1.97;;;1.77;;
43297;SDS011;28892;55.640;37.532;2023-02-28T17:49:19;4.47;;;2.30;;
43297;SDS011;28892;55.640;37.532;2023-02-28T17:51:45;3.17;;;2.30;;
43297;SDS011;28892;55.640;37.532;2023-02-28T17:54:19;2.97;;;2.10;;
43297;SDS011;28892;55.640;37.532;2023-02-28T18:01:03;3.50;;;2.00;;
43297;SDS011;28892;55.640;37.532;2023-02-28T18:08:25;3.43;;;2.40;;
43297;SDS011;28892;55.640;37.532;2023-02-28T18:11:30;3.47;;;2.27;;
43297;SDS011;28892;55.640;37.532;2023-02-28T18:14:37;4.50;;;2.47;;
43297;SDS011;28892;55.640;37.532;2023-02-28T18:20:35;4.13;;;2.20;;
43297;SDS011;28892;55.640;37.532;2023-02-28T18:27:56;2.10;;;1.10;;
43297;SDS011;28892;55.640;37.532;2023-02-28T18:34:51;3.97;;;1.00;;
43297;SDS011;28892;55.640;37.532;2023-02-28T18:37:29;2.27;;;1.10;;
43297;SDS011;28892;55.640;37.532;2023-02-28T18:39:55;2.60;;;1.23;;
43297;SDS011;28892;55.640;37.532;2023-02-28T18:42:29;2.50;;;1.00;;
43297;SDS011;28892;55.640;37.532;2023-02-28T18:44:55;1.53;;;1.00;;
43297;SDS011;28892;55.640;37.532;2023-02-28T18:47:21;3.23;;;1.13;;
43297;SDS011;28892;55.640;37.532;2023-02-28T18:50:45;2.97;;;1.13;;
43297;SDS011;28892;55.640;37.532;2023-02-28T18:53:40;3.40;;;1.30;;
43297;SDS011;28892;55.640;37.532;2023-02-28T18:56:17;4.43;;;1.33;;
43297;SDS011;28892;55.640;37.532;2023-02-28T19:07:08;1.25;;;0.98;;
43297;SDS011;28892;55.640;37.532;2023-02-28T19:12:32;2.43;;;0.90;;
43297;SDS011;28892;55.640;37.532;2023-02-28T19:15:17;2.00;;;0.77;;
43297;SDS011;28892;55.640;37.532;2023-02-28T19:23:48;3.07;;;1.00;;
43297;SDS011;28892;55.640;37.532;2023-02-28T19:26:31;1.07;;;0.90;;
43297;SDS011;28892;55.640;37.532;2023-02-28T19:29:48;2.77;;;1.10;;
43297;SDS011;28892;55.640;37.532;2023-02-28T19:46:56;2.23;;;1.47;;
43297;SDS011;28892;55.640;37.532;2023-02-28T19:57:15;1.97;;;1.20;;
43297;SDS011;28892;55.640;37.532;2023-02-28T20:00:14;2.43;;;1.10;;
43297;SDS011;28892;55.640;37.532;2023-02-28T20:02:46;3.70;;;1.37;;
43297;SDS011;28892;55.640;37.532;2023-02-28T20:09:32;2.17;;;1.03;;
43297;SDS011;28892;55.640;37.532;2023-02-28T20:15:39;3.20;;;1.63;;
43297;SDS011;28892;55.640;37.532;2023-02-28T20:18:51;2.57;;;0.93;;
43297;SDS011;28892;55.640;37.532;2023-02-28T20:31:23;2.80;;;1.60;;
43297;SDS011;28892;55.640;37.532;2023-02-28T20:33:58;2.10;;;0.97;;
43297;SDS011;28892;55.640;37.532;2023-02-28T20:36:27;2.40;;;1.30;;
43297;SDS011;28892;55.640;37.532;2023-02-28T20:39:11;3.20;;;1.07;;
43297;SDS011;28892;55.640;37.532;2023-02-28T20:41:45;1.87;;;0.70;;
43297;SDS011;28892;55.640;37.532;2023-02-28T20:44:25;1.50;;;0.90;;
43297;SDS011;28892;55.640;37.532;2023-02-28T20:46:55;1.60;;;1.10;;
43297;SDS011;28892;55.640;37.532;2023-02-28T20:49:27;2.37;;;1.10;;
43297;SDS011;28892;55.640;37.532;2023-02-28T20:51:52;3.13;;;1.00;;